Terminal Aerodrome Forecast
Issued by NWS Missoula, MT

Home | Current Version | Previous Version | Text Only | Print | Product List | Glossary On
Versions: 1 2 3 4 5 6 7 8 9 10 11 12 13 14 15 16 17 18
000
FTUS45 KMSO 031245 AAA
TAFGPI
TAF AMD
KGPI 031245Z 0313/0412 00000KT 3/4SM BR BKN007
     FM031400 VRB06KT 6SM BR BKN009
      TEMPO 0314/0317 2SM BR
     FM031700 17005KT P6SM SCT020 BKN100
     FM040000 21007KT P6SM VCSH BKN080=

USA.gov is the U.S. government's official web portal to all federal, state and local government web resources and services.